Terminal Aerodrome Forecast
Issued by NWS

Home | Current Version | Previous Version | Text Only | Print | Product List | Glossary On
Versions: 1 2 3 4 5 6 7 8 9 10 11 12 13 14 15 16 17 18 19 20 21 22 23 24 25 26 27 28 29 30 31 32 33 34
000
FTUS46 KOTX 190521
TAFCOE
TAF
KCOE 190521Z 1906/2006 04005KT P6SM VCSH BKN030 OVC040
     FM190800 07006KT P6SM -RA BKN020 OVC030
     FM191600 10006KT 4SM -RA BR BKN014 OVC020
     FM200000 21005KT P6SM OVC012
     FM200300 19005KT P6SM OVC010
      AMD LTD TO CLD AND VIS=

USA.gov is the U.S. government's official web portal to all federal, state and local government web resources and services.